sensor_id;sensor_type;location;lat;lon;timestamp;pressure;altitude;pressure_sealevel;temperature;humidity
58662;BME280;44432;49.786;22.760;2022-10-31T00:02:12;99732.73;;;10.79;85.78
58662;BME280;44432;49.786;22.760;2022-10-31T00:04:43;99736.92;;;10.75;85.79
58662;BME280;44432;49.786;22.760;2022-10-31T00:07:13;99736.42;;;10.72;85.70
58662;BME280;44432;49.786;22.760;2022-10-31T00:09:44;99732.56;;;10.69;85.83
58662;BME280;44432;49.786;22.760;2022-10-31T00:12:14;99734.88;;;10.68;85.94
58662;BME280;44432;49.786;22.760;2022-10-31T00:14:44;99734.27;;;10.65;85.85
58662;BME280;44432;49.786;22.760;2022-10-31T00:17:15;99731.59;;;10.61;85.71
58662;BME280;44432;49.786;22.760;2022-10-31T00:19:46;99731.90;;;10.56;85.64
58662;BME280;44432;49.786;22.760;2022-10-31T00:22:16;99730.64;;;10.51;85.74
58662;BME280;44432;49.786;22.760;2022-10-31T00:24:47;99730.63;;;10.45;85.66
58662;BME280;44432;49.786;22.760;2022-10-31T00:27:17;99738.58;;;10.41;85.70
58662;BME280;44432;49.786;22.760;2022-10-31T00:29:48;99735.19;;;10.37;85.89
58662;BME280;44432;49.786;22.760;2022-10-31T00:32:18;99736.88;;;10.32;85.90
58662;BME280;44432;49.786;22.760;2022-10-31T00:34:49;99737.52;;;10.27;85.82
58662;BME280;44432;49.786;22.760;2022-10-31T00:37:19;99736.98;;;10.23;86.10
58662;BME280;44432;49.786;22.760;2022-10-31T00:39:50;99735.05;;;10.19;86.04
58662;BME280;44432;49.786;22.760;2022-10-31T00:42:20;99735.90;;;10.14;85.94
58662;BME280;44432;49.786;22.760;2022-10-31T00:44:51;99732.39;;;10.09;85.89
58662;BME280;44432;49.786;22.760;2022-10-31T00:47:21;99732.86;;;10.03;85.96
58662;BME280;44432;49.786;22.760;2022-10-31T00:49:52;99735.19;;;9.96;86.05
58662;BME280;44432;49.786;22.760;2022-10-31T00:52:22;99734.77;;;9.91;86.15
58662;BME280;44432;49.786;22.760;2022-10-31T00:54:53;99732.63;;;9.86;86.36
58662;BME280;44432;49.786;22.760;2022-10-31T00:57:23;99730.70;;;9.83;86.44
58662;BME280;44432;49.786;22.760;2022-10-31T00:59:54;99731.91;;;9.79;86.48
58662;BME280;44432;49.786;22.760;2022-10-31T01:02:24;99727.80;;;9.75;86.65
58662;BME280;44432;49.786;22.760;2022-10-31T01:04:55;99729.85;;;9.73;86.77
58662;BME280;44432;49.786;22.760;2022-10-31T01:07:25;99729.88;;;9.70;86.88
58662;BME280;44432;49.786;22.760;2022-10-31T01:09:56;99725.33;;;9.67;87.02
58662;BME280;44432;49.786;22.760;2022-10-31T01:12:26;99729.86;;;9.65;87.09
58662;BME280;44432;49.786;22.760;2022-10-31T01:14:57;99730.80;;;9.62;87.02
58662;BME280;44432;49.786;22.760;2022-10-31T01:17:27;99727.09;;;9.58;87.09
58662;BME280;44432;49.786;22.760;2022-10-31T01:19:58;99725.58;;;9.54;87.11
58662;BME280;44432;49.786;22.760;2022-10-31T01:22:28;99724.46;;;9.50;87.21
58662;BME280;44432;49.786;22.760;2022-10-31T01:24:59;99725.86;;;9.48;87.30
58662;BME280;44432;49.786;22.760;2022-10-31T01:27:30;99714.34;;;9.39;87.37
58662;BME280;44432;49.786;22.760;2022-10-31T01:30:00;99719.55;;;9.42;87.42
58662;BME280;44432;49.786;22.760;2022-10-31T01:32:31;99719.66;;;9.40;87.55
58662;BME280;44432;49.786;22.760;2022-10-31T01:35:02;99721.96;;;9.38;87.57
58662;BME280;44432;49.786;22.760;2022-10-31T01:37:33;99725.29;;;9.36;87.60
58662;BME280;44432;49.786;22.760;2022-10-31T01:40:04;99726.83;;;9.34;87.76
58662;BME280;44432;49.786;22.760;2022-10-31T01:42:35;99728.77;;;9.32;87.80
58662;BME280;44432;49.786;22.760;2022-10-31T01:45:10;99728.34;;;9.30;87.92
58662;BME280;44432;49.786;22.760;2022-10-31T01:47:44;99726.50;;;9.28;87.85
58662;BME280;44432;49.786;22.760;2022-10-31T01:50:23;99731.68;;;9.26;87.83
58662;BME280;44432;49.786;22.760;2022-10-31T01:52:56;99730.40;;;9.23;87.99
58662;BME280;44432;49.786;22.760;2022-10-31T01:55:30;99733.71;;;9.21;87.93
58662;BME280;44432;49.786;22.760;2022-10-31T01:58:05;99735.48;;;9.19;87.92
58662;BME280;44432;49.786;22.760;2022-10-31T02:00:37;99741.14;;;9.17;88.09
58662;BME280;44432;49.786;22.760;2022-10-31T02:03:08;99736.92;;;9.16;88.30
58662;BME280;44432;49.786;22.760;2022-10-31T02:05:39;99738.13;;;9.15;88.11
58662;BME280;44432;49.786;22.760;2022-10-31T02:08:15;99737.86;;;9.13;88.10
58662;BME280;44432;49.786;22.760;2022-10-31T02:10:48;99735.83;;;9.10;88.26
58662;BME280;44432;49.786;22.760;2022-10-31T02:13:20;99741.33;;;9.09;88.26
58662;BME280;44432;49.786;22.760;2022-10-31T02:15:54;99739.52;;;9.07;88.19
58662;BME280;44432;49.786;22.760;2022-10-31T02:18:27;99745.17;;;9.04;88.19
58662;BME280;44432;49.786;22.760;2022-10-31T02:20:59;99745.11;;;9.00;88.33
58662;BME280;44432;49.786;22.760;2022-10-31T02:27:09;99746.65;;;8.91;88.34
58662;BME280;44432;49.786;22.760;2022-10-31T02:29:56;99745.96;;;8.86;88.62
58662;BME280;44432;49.786;22.760;2022-10-31T02:32:41;99749.66;;;8.83;88.41
58662;BME280;44432;49.786;22.760;2022-10-31T02:35:20;99749.19;;;8.80;88.47
58662;BME280;44432;49.786;22.760;2022-10-31T02:38:00;99752.77;;;8.78;88.63
58662;BME280;44432;49.786;22.760;2022-10-31T02:40:37;99745.38;;;8.75;88.64
58662;BME280;44432;49.786;22.760;2022-10-31T02:43:14;99746.66;;;8.73;88.65
58662;BME280;44432;49.786;22.760;2022-10-31T02:45:53;99749.80;;;8.72;88.78
58662;BME280;44432;49.786;22.760;2022-10-31T02:48:28;99749.47;;;8.70;88.97
58662;BME280;44432;49.786;22.760;2022-10-31T02:51:02;99748.40;;;8.69;89.01
58662;BME280;44432;49.786;22.760;2022-10-31T02:53:35;99746.86;;;8.69;89.12
58662;BME280;44432;49.786;22.760;2022-10-31T02:56:08;99748.27;;;8.67;89.15
58662;BME280;44432;49.786;22.760;2022-10-31T02:58:45;99748.05;;;8.65;89.01
58662;BME280;44432;49.786;22.760;2022-10-31T03:04:35;99755.83;;;8.58;89.03
58662;BME280;44432;49.786;22.760;2022-10-31T03:07:18;99760.40;;;8.53;89.02
58662;BME280;44432;49.786;22.760;2022-10-31T03:09:59;99766.30;;;8.49;88.71
58662;BME280;44432;49.786;22.760;2022-10-31T03:12:38;99767.84;;;8.45;88.83
58662;BME280;44432;49.786;22.760;2022-10-31T03:15:14;99767.02;;;8.40;88.60
58662;BME280;44432;49.786;22.760;2022-10-31T03:17:53;99766.60;;;8.35;88.48
58662;BME280;44432;49.786;22.760;2022-10-31T03:20:30;99767.76;;;8.30;88.46
58662;BME280;44432;49.786;22.760;2022-10-31T03:23:04;99768.31;;;8.26;88.54
58662;BME280;44432;49.786;22.760;2022-10-31T03:25:37;99769.69;;;8.21;88.67
58662;BME280;44432;49.786;22.760;2022-10-31T03:28:11;99773.13;;;8.18;88.77
58662;BME280;44432;49.786;22.760;2022-10-31T03:30:45;99768.38;;;8.13;88.88
58662;BME280;44432;49.786;22.760;2022-10-31T03:33:20;99772.13;;;8.13;89.00
58662;BME280;44432;49.786;22.760;2022-10-31T03:35:52;99776.15;;;8.10;88.91
58662;BME280;44432;49.786;22.760;2022-10-31T03:38:24;99777.11;;;8.06;88.70
58662;BME280;44432;49.786;22.760;2022-10-31T03:40:57;99779.91;;;8.04;89.03
58662;BME280;44432;49.786;22.760;2022-10-31T03:43:36;99783.99;;;8.00;88.99
58662;BME280;44432;49.786;22.760;2022-10-31T03:46:09;99787.39;;;7.97;89.27
58662;BME280;44432;49.786;22.760;2022-10-31T03:48:39;99788.81;;;7.94;89.05
58662;BME280;44432;49.786;22.760;2022-10-31T03:51:15;99791.70;;;7.92;89.21
58662;BME280;44432;49.786;22.760;2022-10-31T03:53:54;99789.23;;;7.89;89.23
58662;BME280;44432;49.786;22.760;2022-10-31T03:56:29;99790.55;;;7.85;89.14
58662;BME280;44432;49.786;22.760;2022-10-31T03:59:07;99793.16;;;7.84;89.32
58662;BME280;44432;49.786;22.760;2022-10-31T04:01:43;99792.91;;;7.80;89.29
58662;BME280;44432;49.786;22.760;2022-10-31T04:04:15;99792.48;;;7.79;89.64
58662;BME280;44432;49.786;22.760;2022-10-31T04:06:47;99796.11;;;7.78;89.81
58662;BME280;44432;49.786;22.760;2022-10-31T04:09:20;99794.13;;;7.77;89.69
58662;BME280;44432;49.786;22.760;2022-10-31T04:11:53;99793.80;;;7.77;89.89
58662;BME280;44432;49.786;22.760;2022-10-31T04:14:26;99790.02;;;7.76;89.78
58662;BME280;44432;49.786;22.760;2022-10-31T04:16:58;99793.14;;;7.75;89.77
58662;BME280;44432;49.786;22.760;2022-10-31T04:19:29;99796.23;;;7.74;89.84
58662;BME280;44432;49.786;22.760;2022-10-31T04:22:00;99796.96;;;7.72;89.84
58662;BME280;44432;49.786;22.760;2022-10-31T04:24:31;99799.32;;;7.70;89.74
58662;BME280;44432;49.786;22.760;2022-10-31T04:27:01;99792.27;;;7.66;89.81
58662;BME280;44432;49.786;22.760;2022-10-31T04:29:32;99798.58;;;7.66;89.63
58662;BME280;44432;49.786;22.760;2022-10-31T04:32:02;99798.30;;;7.64;90.24
58662;BME280;44432;49.786;22.760;2022-10-31T04:34:33;99800.83;;;7.62;90.00
58662;BME280;44432;49.786;22.760;2022-10-31T04:37:03;99802.60;;;7.59;89.59
58662;BME280;44432;49.786;22.760;2022-10-31T04:39:34;99798.03;;;7.56;89.54
58662;BME280;44432;49.786;22.760;2022-10-31T04:42:04;99800.52;;;7.52;89.78
58662;BME280;44432;49.786;22.760;2022-10-31T04:44:35;99796.52;;;7.48;89.77
58662;BME280;44432;49.786;22.760;2022-10-31T04:47:05;99801.27;;;7.43;89.48
58662;BME280;44432;49.786;22.760;2022-10-31T04:49:36;99805.95;;;7.38;89.65
58662;BME280;44432;49.786;22.760;2022-10-31T04:52:06;99806.80;;;7.32;89.60
58662;BME280;44432;49.786;22.760;2022-10-31T04:54:37;99806.17;;;7.27;89.50
58662;BME280;44432;49.786;22.760;2022-10-31T04:57:08;99802.48;;;7.23;89.73
58662;BME280;44432;49.786;22.760;2022-10-31T04:59:38;99804.17;;;7.20;89.88
58662;BME280;44432;49.786;22.760;2022-10-31T05:02:09;99809.91;;;7.17;89.74
58662;BME280;44432;49.786;22.760;2022-10-31T05:04:39;99808.98;;;7.15;89.77
58662;BME280;44432;49.786;22.760;2022-10-31T05:07:10;99814.45;;;7.13;89.91
58662;BME280;44432;49.786;22.760;2022-10-31T05:09:40;99818.92;;;7.11;89.58
58662;BME280;44432;49.786;22.760;2022-10-31T05:12:11;99819.02;;;7.09;89.95
58662;BME280;44432;49.786;22.760;2022-10-31T05:14:41;99820.35;;;7.06;89.78
58662;BME280;44432;49.786;22.760;2022-10-31T05:17:12;99824.31;;;7.04;89.62
58662;BME280;44432;49.786;22.760;2022-10-31T05:19:42;99822.22;;;7.02;89.92
58662;BME280;44432;49.786;22.760;2022-10-31T05:22:13;99828.75;;;7.02;90.18
58662;BME280;44432;49.786;22.760;2022-10-31T05:24:43;99828.36;;;7.02;90.29
58662;BME280;44432;49.786;22.760;2022-10-31T05:27:14;99829.57;;;7.02;89.92
58662;BME280;44432;49.786;22.760;2022-10-31T05:29:44;99829.30;;;7.03;90.43
58662;BME280;44432;49.786;22.760;2022-10-31T05:32:15;99826.67;;;7.03;89.87
58662;BME280;44432;49.786;22.760;2022-10-31T05:34:45;99824.73;;;7.03;90.15
58662;BME280;44432;49.786;22.760;2022-10-31T05:37:16;99822.48;;;7.03;90.12
58662;BME280;44432;49.786;22.760;2022-10-31T05:39:46;99828.52;;;7.04;90.00
58662;BME280;44432;49.786;22.760;2022-10-31T05:42:17;99828.77;;;7.05;90.34
58662;BME280;44432;49.786;22.760;2022-10-31T05:44:47;99832.98;;;7.06;90.05
58662;BME280;44432;49.786;22.760;2022-10-31T05:47:18;99836.42;;;7.08;90.40
58662;BME280;44432;49.786;22.760;2022-10-31T05:49:48;99839.35;;;7.10;90.38
58662;BME280;44432;49.786;22.760;2022-10-31T05:52:19;99837.48;;;7.11;90.36
58662;BME280;44432;49.786;22.760;2022-10-31T05:54:50;99845.21;;;7.12;90.13
58662;BME280;44432;49.786;22.760;2022-10-31T05:57:20;99842.75;;;7.12;89.83
58662;BME280;44432;49.786;22.760;2022-10-31T06:03:00;99843.23;;;7.17;89.57
58662;BME280;44432;49.786;22.760;2022-10-31T06:05:31;99842.79;;;7.16;89.81
58662;BME280;44432;49.786;22.760;2022-10-31T06:08:02;99843.19;;;7.22;89.73
58662;BME280;44432;49.786;22.760;2022-10-31T06:10:32;99848.31;;;7.27;89.97
58662;BME280;44432;49.786;22.760;2022-10-31T06:13:03;99847.57;;;7.29;89.84
58662;BME280;44432;49.786;22.760;2022-10-31T06:15:35;99850.27;;;7.32;89.84
58662;BME280;44432;49.786;22.760;2022-10-31T06:18:07;99851.77;;;7.35;89.91
58662;BME280;44432;49.786;22.760;2022-10-31T06:20:38;99854.38;;;7.38;90.20
58662;BME280;44432;49.786;22.760;2022-10-31T06:23:09;99852.20;;;7.45;90.18
58662;BME280;44432;49.786;22.760;2022-10-31T06:25:40;99852.96;;;7.50;89.86
58662;BME280;44432;49.786;22.760;2022-10-31T06:28:10;99849.86;;;7.54;89.90
58662;BME280;44432;49.786;22.760;2022-10-31T06:30:41;99854.02;;;7.60;89.92
58662;BME280;44432;49.786;22.760;2022-10-31T06:33:11;99853.44;;;7.63;89.77
58662;BME280;44432;49.786;22.760;2022-10-31T06:35:47;99856.20;;;7.66;89.80
58662;BME280;44432;49.786;22.760;2022-10-31T06:38:17;99856.60;;;7.72;89.68
58662;BME280;44432;49.786;22.760;2022-10-31T06:40:48;99860.48;;;7.76;89.77
58662;BME280;44432;49.786;22.760;2022-10-31T06:43:18;99861.21;;;7.80;89.49
58662;BME280;44432;49.786;22.760;2022-10-31T06:45:49;99856.04;;;7.83;89.54
58662;BME280;44432;49.786;22.760;2022-10-31T06:48:20;99859.84;;;7.86;89.59
58662;BME280;44432;49.786;22.760;2022-10-31T06:50:50;99862.20;;;7.90;89.44
58662;BME280;44432;49.786;22.760;2022-10-31T06:53:21;99862.11;;;7.92;89.50
58662;BME280;44432;49.786;22.760;2022-10-31T06:55:51;99860.48;;;7.97;89.76
58662;BME280;44432;49.786;22.760;2022-10-31T06:58:22;99861.67;;;8.04;89.81
58662;BME280;44432;49.786;22.760;2022-10-31T07:00:52;99863.62;;;8.10;90.00
58662;BME280;44432;49.786;22.760;2022-10-31T07:03:23;99862.77;;;8.16;89.83
58662;BME280;44432;49.786;22.760;2022-10-31T07:05:53;99862.44;;;8.21;89.58
58662;BME280;44432;49.786;22.760;2022-10-31T07:08:24;99861.65;;;8.30;89.65
58662;BME280;44432;49.786;22.760;2022-10-31T07:10:56;99862.86;;;8.39;90.03
58662;BME280;44432;49.786;22.760;2022-10-31T07:13:27;99860.46;;;8.48;89.96
58662;BME280;44432;49.786;22.760;2022-10-31T07:16:02;99865.02;;;8.57;89.90
58662;BME280;44432;49.786;22.760;2022-10-31T07:18:33;99860.64;;;8.67;89.83
58662;BME280;44432;49.786;22.760;2022-10-31T07:21:04;99861.52;;;8.77;89.81
58662;BME280;44432;49.786;22.760;2022-10-31T07:23:35;99858.73;;;8.89;89.93
58662;BME280;44432;49.786;22.760;2022-10-31T07:26:05;99861.75;;;8.99;89.74
58662;BME280;44432;49.786;22.760;2022-10-31T07:28:36;99864.92;;;9.09;89.59
58662;BME280;44432;49.786;22.760;2022-10-31T07:31:07;99865.30;;;9.20;89.81
58662;BME280;44432;49.786;22.760;2022-10-31T07:33:37;99860.82;;;9.31;89.74
58662;BME280;44432;49.786;22.760;2022-10-31T07:36:08;99865.27;;;9.42;89.63
58662;BME280;44432;49.786;22.760;2022-10-31T07:38:39;99864.45;;;9.51;89.68
58662;BME280;44432;49.786;22.760;2022-10-31T07:41:09;99866.27;;;9.62;89.52
58662;BME280;44432;49.786;22.760;2022-10-31T07:43:40;99867.08;;;9.72;89.55
58662;BME280;44432;49.786;22.760;2022-10-31T07:46:10;99861.58;;;9.82;89.39
58662;BME280;44432;49.786;22.760;2022-10-31T07:48:41;99862.06;;;9.94;89.35
58662;BME280;44432;49.786;22.760;2022-10-31T07:51:11;99863.60;;;10.06;89.35
58662;BME280;44432;49.786;22.760;2022-10-31T07:53:42;99866.29;;;10.20;89.16
58662;BME280;44432;49.786;22.760;2022-10-31T07:56:13;99870.63;;;10.36;89.33
58662;BME280;44432;49.786;22.760;2022-10-31T07:58:43;99869.90;;;10.51;89.23
58662;BME280;44432;49.786;22.760;2022-10-31T08:01:14;99870.11;;;10.65;88.99
58662;BME280;44432;49.786;22.760;2022-10-31T08:03:44;99873.04;;;10.78;88.81
58662;BME280;44432;49.786;22.760;2022-10-31T08:06:15;99876.58;;;10.90;88.93
58662;BME280;44432;49.786;22.760;2022-10-31T08:08:45;99875.86;;;11.02;88.55
58662;BME280;44432;49.786;22.760;2022-10-31T08:11:16;99877.30;;;11.12;88.66
58662;BME280;44432;49.786;22.760;2022-10-31T08:13:47;99882.33;;;11.24;88.54
58662;BME280;44432;49.786;22.760;2022-10-31T08:16:18;99884.89;;;11.35;88.50
58662;BME280;44432;49.786;22.760;2022-10-31T08:18:48;99887.73;;;11.46;88.28
58662;BME280;44432;49.786;22.760;2022-10-31T08:21:19;99887.95;;;11.60;88.24
58662;BME280;44432;49.786;22.760;2022-10-31T08:23:50;99884.38;;;11.70;88.14
58662;BME280;44432;49.786;22.760;2022-10-31T08:26:20;99882.68;;;11.82;87.87
58662;BME280;44432;49.786;22.760;2022-10-31T08:28:51;99884.41;;;11.94;87.77
58662;BME280;44432;49.786;22.760;2022-10-31T08:31:23;99881.59;;;12.05;87.62
58662;BME280;44432;49.786;22.760;2022-10-31T08:33:55;99876.43;;;12.18;87.45
58662;BME280;44432;49.786;22.760;2022-10-31T08:36:26;99873.99;;;12.30;87.34
58662;BME280;44432;49.786;22.760;2022-10-31T08:38:57;99873.73;;;12.42;87.09
58662;BME280;44432;49.786;22.760;2022-10-31T08:41:27;99872.85;;;12.54;86.84
58662;BME280;44432;49.786;22.760;2022-10-31T08:43:58;99871.11;;;12.69;86.72
58662;BME280;44432;49.786;22.760;2022-10-31T08:46:29;99871.04;;;12.82;86.52
58662;BME280;44432;49.786;22.760;2022-10-31T08:49:00;99871.17;;;12.95;86.17
58662;BME280;44432;49.786;22.760;2022-10-31T08:51:31;99867.55;;;13.07;85.95
58662;BME280;44432;49.786;22.760;2022-10-31T08:54:02;99871.78;;;13.17;85.64
58662;BME280;44432;49.786;22.760;2022-10-31T08:56:32;99876.94;;;13.29;85.36
58662;BME280;44432;49.786;22.760;2022-10-31T08:59:03;99877.14;;;13.40;85.23
58662;BME280;44432;49.786;22.760;2022-10-31T09:01:34;99876.45;;;13.52;84.95
58662;BME280;44432;49.786;22.760;2022-10-31T09:04:04;99875.23;;;13.64;84.61
58662;BME280;44432;49.786;22.760;2022-10-31T09:06:35;99878.23;;;13.75;84.25
58662;BME280;44432;49.786;22.760;2022-10-31T09:09:05;99876.60;;;13.88;83.94
58662;BME280;44432;49.786;22.760;2022-10-31T09:11:36;99881.40;;;13.98;83.59
58662;BME280;44432;49.786;22.760;2022-10-31T09:14:07;99880.59;;;14.10;83.37
58662;BME280;44432;49.786;22.760;2022-10-31T09:16:37;99880.42;;;14.21;82.83
58662;BME280;44432;49.786;22.760;2022-10-31T09:19:08;99879.05;;;14.31;82.44
58662;BME280;44432;49.786;22.760;2022-10-31T09:27:51;99879.83;;;14.71;81.21
58662;BME280;44432;49.786;22.760;2022-10-31T09:30:21;99878.69;;;14.81;80.79
58662;BME280;44432;49.786;22.760;2022-10-31T09:32:57;99873.98;;;14.91;80.25
58662;BME280;44432;49.786;22.760;2022-10-31T09:35:28;99873.98;;;15.01;80.02
58662;BME280;44432;49.786;22.760;2022-10-31T09:38:00;99874.83;;;15.11;79.50
58662;BME280;44432;49.786;22.760;2022-10-31T09:40:35;99875.23;;;15.19;79.12
58662;BME280;44432;49.786;22.760;2022-10-31T09:43:13;99876.18;;;15.29;79.12
58662;BME280;44432;49.786;22.760;2022-10-31T09:45:53;99878.04;;;15.42;79.01
58662;BME280;44432;49.786;22.760;2022-10-31T09:48:36;99878.38;;;15.54;78.43
58662;BME280;44432;49.786;22.760;2022-10-31T09:51:10;99872.18;;;15.64;77.93
58662;BME280;44432;49.786;22.760;2022-10-31T09:53:46;99871.39;;;15.74;77.45
58662;BME280;44432;49.786;22.760;2022-10-31T09:56:21;99868.83;;;15.83;77.17
58662;BME280;44432;49.786;22.760;2022-10-31T09:58:55;99864.86;;;15.91;76.97
58662;BME280;44432;49.786;22.760;2022-10-31T10:01:37;99862.58;;;16.01;76.63
58662;BME280;44432;49.786;22.760;2022-10-31T10:04:22;99859.61;;;16.12;76.04
58662;BME280;44432;49.786;22.760;2022-10-31T10:06:59;99858.46;;;16.21;75.57
58662;BME280;44432;49.786;22.760;2022-10-31T10:09:30;99854.51;;;16.27;75.34
58662;BME280;44432;49.786;22.760;2022-10-31T10:12:08;99854.09;;;16.36;75.17
58662;BME280;44432;49.786;22.760;2022-10-31T10:14:51;99850.80;;;16.45;74.39
58662;BME280;44432;49.786;22.760;2022-10-31T10:17:33;99849.09;;;16.50;74.20
58662;BME280;44432;49.786;22.760;2022-10-31T10:20:23;99849.11;;;16.57;74.09
58662;BME280;44432;49.786;22.760;2022-10-31T10:23:21;99850.50;;;16.65;73.28
58662;BME280;44432;49.786;22.760;2022-10-31T10:26:01;99850.83;;;16.71;72.98
58662;BME280;44432;49.786;22.760;2022-10-31T10:28:35;99849.13;;;16.77;72.87
58662;BME280;44432;49.786;22.760;2022-10-31T10:31:11;99853.84;;;16.87;72.62
58662;BME280;44432;49.786;22.760;2022-10-31T10:33:54;99855.00;;;16.92;71.78
58662;BME280;44432;49.786;22.760;2022-10-31T10:36:32;99851.13;;;16.96;71.57
58662;BME280;44432;49.786;22.760;2022-10-31T10:39:11;99852.16;;;17.03;71.34
58662;BME280;44432;49.786;22.760;2022-10-31T10:41:47;99850.50;;;17.09;70.96
58662;BME280;44432;49.786;22.760;2022-10-31T10:44:32;99851.88;;;17.15;70.67
58662;BME280;44432;49.786;22.760;2022-10-31T10:47:21;99846.23;;;17.19;70.25
58662;BME280;44432;49.786;22.760;2022-10-31T10:50:15;99844.19;;;17.24;70.25
58662;BME280;44432;49.786;22.760;2022-10-31T10:52:55;99840.77;;;17.30;70.04
58662;BME280;44432;49.786;22.760;2022-10-31T10:55:34;99840.92;;;17.37;70.02
58662;BME280;44432;49.786;22.760;2022-10-31T10:58:09;99843.11;;;17.44;69.69
58662;BME280;44432;49.786;22.760;2022-10-31T11:00:42;99840.20;;;17.48;69.43
58662;BME280;44432;49.786;22.760;2022-10-31T11:03:16;99843.31;;;17.53;68.88
58662;BME280;44432;49.786;22.760;2022-10-31T11:05:49;99841.95;;;17.55;68.53
58662;BME280;44432;49.786;22.760;2022-10-31T11:08:28;99840.27;;;17.57;68.16
58662;BME280;44432;49.786;22.760;2022-10-31T11:11:02;99836.79;;;17.59;68.46
58662;BME280;44432;49.786;22.760;2022-10-31T11:13:35;99836.11;;;17.64;68.47
58662;BME280;44432;49.786;22.760;2022-10-31T11:16:08;99833.30;;;17.69;68.17
58662;BME280;44432;49.786;22.760;2022-10-31T11:18:42;99833.58;;;17.73;67.63
58662;BME280;44432;49.786;22.760;2022-10-31T11:21:24;99833.66;;;17.77;67.09
58662;BME280;44432;49.786;22.760;2022-10-31T11:24:08;99830.25;;;17.80;66.55
58662;BME280;44432;49.786;22.760;2022-10-31T11:26:45;99831.58;;;17.83;66.36
58662;BME280;44432;49.786;22.760;2022-10-31T11:29:20;99832.20;;;17.86;66.42
58662;BME280;44432;49.786;22.760;2022-10-31T11:31:53;99830.84;;;17.89;66.34
58662;BME280;44432;49.786;22.760;2022-10-31T11:34:30;99826.08;;;17.92;66.38
58662;BME280;44432;49.786;22.760;2022-10-31T11:37:08;99823.02;;;17.95;66.26
58662;BME280;44432;49.786;22.760;2022-10-31T11:39:43;99824.27;;;18.01;65.72
58662;BME280;44432;49.786;22.760;2022-10-31T11:42:14;99828.11;;;18.04;65.42
58662;BME280;44432;49.786;22.760;2022-10-31T11:44:45;99830.05;;;18.06;65.49
58662;BME280;44432;49.786;22.760;2022-10-31T11:47:26;99824.27;;;18.08;65.46
58662;BME280;44432;49.786;22.760;2022-10-31T11:49:59;99822.21;;;18.11;65.32
58662;BME280;44432;49.786;22.760;2022-10-31T11:52:32;99821.77;;;18.13;64.76
58662;BME280;44432;49.786;22.760;2022-10-31T11:55:16;99818.85;;;18.15;64.59
58662;BME280;44432;49.786;22.760;2022-10-31T11:57:49;99820.73;;;18.17;64.40
58662;BME280;44432;49.786;22.760;2022-10-31T12:00:25;99823.16;;;18.17;64.34
58662;BME280;44432;49.786;22.760;2022-10-31T12:03:13;99821.23;;;18.21;64.09
58662;BME280;44432;49.786;22.760;2022-10-31T12:05:47;99821.52;;;18.24;64.02
58662;BME280;44432;49.786;22.760;2022-10-31T12:08:19;99820.23;;;18.26;64.08
58662;BME280;44432;49.786;22.760;2022-10-31T12:11:01;99816.56;;;18.29;63.83
58662;BME280;44432;49.786;22.760;2022-10-31T12:13:37;99817.35;;;18.33;63.72
58662;BME280;44432;49.786;22.760;2022-10-31T12:16:15;99821.12;;;18.35;63.82
58662;BME280;44432;49.786;22.760;2022-10-31T12:18:57;99824.80;;;18.38;63.51
58662;BME280;44432;49.786;22.760;2022-10-31T12:21:44;99822.61;;;18.39;63.26
58662;BME280;44432;49.786;22.760;2022-10-31T12:24:32;99822.16;;;18.42;63.37
58662;BME280;44432;49.786;22.760;2022-10-31T12:27:13;99820.48;;;18.45;63.52
58662;BME280;44432;49.786;22.760;2022-10-31T12:30:06;99822.20;;;18.50;63.48
58662;BME280;44432;49.786;22.760;2022-10-31T12:32:51;99821.45;;;18.55;63.21
58662;BME280;44432;49.786;22.760;2022-10-31T12:35:39;99820.72;;;18.56;62.72
58662;BME280;44432;49.786;22.760;2022-10-31T12:38:33;99820.13;;;18.56;62.40
58662;BME280;44432;49.786;22.760;2022-10-31T12:41:19;99818.58;;;18.56;62.87
58662;BME280;44432;49.786;22.760;2022-10-31T12:44:00;99818.81;;;18.58;63.57
58662;BME280;44432;49.786;22.760;2022-10-31T12:46:51;99817.61;;;18.60;63.93
58662;BME280;44432;49.786;22.760;2022-10-31T12:49:44;99811.77;;;18.62;64.18
58662;BME280;44432;49.786;22.760;2022-10-31T12:52:39;99816.15;;;18.62;64.24
58662;BME280;44432;49.786;22.760;2022-10-31T12:55:25;99813.77;;;18.60;64.36
58662;BME280;44432;49.786;22.760;2022-10-31T12:58:05;99817.29;;;18.60;64.59
58662;BME280;44432;49.786;22.760;2022-10-31T13:00:43;99819.02;;;18.57;64.54
58662;BME280;44432;49.786;22.760;2022-10-31T13:03:28;99811.64;;;18.53;64.63
58662;BME280;44432;49.786;22.760;2022-10-31T13:06:07;99817.25;;;18.52;64.79
58662;BME280;44432;49.786;22.760;2022-10-31T13:08:43;99819.16;;;18.51;65.05
58662;BME280;44432;49.786;22.760;2022-10-31T13:11:16;99822.42;;;18.50;65.06
58662;BME280;44432;49.786;22.760;2022-10-31T13:13:56;99822.37;;;18.46;65.06
58662;BME280;44432;49.786;22.760;2022-10-31T13:16:32;99822.23;;;18.43;65.05
58662;BME280;44432;49.786;22.760;2022-10-31T13:19:08;99819.35;;;18.40;65.28
58662;BME280;44432;49.786;22.760;2022-10-31T13:21:44;99820.07;;;18.36;65.22
58662;BME280;44432;49.786;22.760;2022-10-31T13:24:23;99818.99;;;18.32;65.36
58662;BME280;44432;49.786;22.760;2022-10-31T13:26:59;99819.26;;;18.26;65.48
58662;BME280;44432;49.786;22.760;2022-10-31T13:29:35;99819.32;;;18.23;65.60
58662;BME280;44432;49.786;22.760;2022-10-31T13:32:10;99820.45;;;18.20;65.68
58662;BME280;44432;49.786;22.760;2022-10-31T13:34:44;99818.71;;;18.17;65.82
58662;BME280;44432;49.786;22.760;2022-10-31T13:37:32;99814.57;;;18.15;65.95
58662;BME280;44432;49.786;22.760;2022-10-31T13:40:14;99816.54;;;18.14;66.00
58662;BME280;44432;49.786;22.760;2022-10-31T13:42:57;99816.02;;;18.12;66.07
58662;BME280;44432;49.786;22.760;2022-10-31T13:45:33;99814.54;;;18.08;66.08
58662;BME280;44432;49.786;22.760;2022-10-31T13:48:40;99818.66;;;18.05;66.26